Hillburn, New York
Current Conditions -  °F | °C
As of 5:17 AM on Tuesday 27 Jan 2015 (Local Time) from KCDW Reporting Station
Light Snow Light Snow  
Wind Chill: -12°   Ceiling: 3200
Heat Index: -7°   Visibility: 2.5mi
Dew Point: -10°   Wind: 8mph
Humidity: 78%   Direction: 360°N
Pressure: 29.69"   Gusts: NA
Location:  41.12°N, 74.17°W
Report Text: KCDW 271017Z 36007KT 340V040 2 1/2SM -SN OVC032 M07/M10 A2969 RMK AO2 P0000 T10671100
Loading
Personal Weather Stations






























Interactive Weather Map New forecast layout! Learn more

10-Day Weather Forecast

Advertisements
Track Severe Weather on mobile